Time;durP1;ratioP1;P1;durP2;ratioP2;P2;SDS_P1;SDS_P2;PMS_P1;PMS_P2;Temp;Humidity;BMP_temperature;BMP_pressure;BME280_temperature;BME280_humidity;BME280_pressure;Samples;Min_cycle;Max_cycle;Signal;HPM_P1;HPM_P2
2023/06/17 00:01:14;;;;;;;;;;;;;;;;;;5032008;28;19931;-72
2023/06/17 00:03:42;;;;;;;;;;;;;;;;;;5044127;28;20389;-73
2023/06/17 00:06:09;;;;;;;;;;;;;;;;;;5051791;28;19924;-72
2023/06/17 00:08:36;;;;;;;;;;;;;;;;;;5054954;28;19932;-72
2023/06/17 00:11:03;;;;;;;;;;;;;;;;;;5055669;28;20004;-73
2023/06/17 00:13:30;;;;;;;;;;;;;;;;;;5055343;28;20003;-72
2023/06/17 00:15:59;;;;;;;;;;;;;;;;;;5044649;28;20044;-73
2023/06/17 00:18:26;;;;;;;;;;;;;;;;;;5055613;28;19932;-73
2023/06/17 00:20:53;;;;;;;;;;;;;;;;;;5055945;28;19924;-73
2023/06/17 00:23:20;;;;;;;;;;;;;;;;;;5055269;28;19925;-72
2023/06/17 00:25:47;;;;;;;;;;;;;;;;;;5055102;28;19925;-72
2023/06/17 00:28:14;;;;;;;;;;;;;;;;;;5055406;28;19979;-72
2023/06/17 00:30:41;;;;;;;;;;;;;;;;;;5054859;28;20023;-73
2023/06/17 00:33:08;;;;;;;;;;;;;;;;;;5039556;28;20023;-72
2023/06/17 00:35:35;;;;;;;;;;;;;;;;;;5035359;28;20448;-72
2023/06/17 00:38:02;;;;;;;;;;;;;;;;;;5035325;28;20320;-72
2023/06/17 00:40:29;;;;;;;;;;;;;;;;;;5035144;28;20584;-72
2023/06/17 00:42:56;;;;;;;;;;;;;;;;;;5035619;28;20017;-72
2023/06/17 00:45:23;;;;;;;;;;;;;;;;;;5054400;28;20011;-72
2023/06/17 00:47:50;;;;;;;;;;;;;;;;;;5035263;28;19932;-72
2023/06/17 00:50:17;;;;;;;;;;;;;;;;;;5051474;28;20011;-71
2023/06/17 00:52:44;;;;;;;;;;;;;;;;;;5054307;28;19925;-72
2023/06/17 00:55:11;;;;;;;;;;;;;;;;;;5054778;28;20027;-72
2023/06/17 00:57:38;;;;;;;;;;;;;;;;;;5054798;28;19925;-72
2023/06/17 01:00:10;;;;;;;;;;;;;;;;;;5049349;28;19925;-72
2023/06/17 01:02:39;;;;;;;;;;;;;;;;;;5034794;28;19925;-72
2023/06/17 01:05:10;;;;;;;;;;;;;;;;;;5044274;28;19931;-72
2023/06/17 01:07:40;;;;;;;;;;;;;;;;;;5045021;28;19960;-72
2023/06/17 01:10:07;;;;;;;;;;;;;;;;;;5054545;28;19982;-72
2023/06/17 01:12:34;;;;;;;;;;;;;;;;;;5054189;28;19963;-72
2023/06/17 01:15:01;;;;;;;;;;;;;;;;;;5055367;28;20019;-72
2023/06/17 01:17:28;;;;;;;;;;;;;;;;;;5051359;28;19991;-72
2023/06/17 01:19:55;;;;;;;;;;;;;;;;;;5055168;28;19931;-72
2023/06/17 01:22:22;;;;;;;;;;;;;;;;;;5053277;28;19924;-72
2023/06/17 01:24:50;;;;;;;;;;;;;;;;;;5048106;28;19931;-72
2023/06/17 01:27:17;;;;;;;;;;;;;;;;;;5054266;28;19931;-72
2023/06/17 01:29:48;;;;;;;;;;;;;;;;;;5054576;28;19924;-72
2023/06/17 01:32:15;;;;;;;;;;;;;;;;;;5054181;28;19960;-72
2023/06/17 01:34:42;;;;;;;;;;;;;;;;;;5053755;28;19983;-72
2023/06/17 01:37:09;;;;;;;;;;;;;;;;;;5052298;28;19924;-72
2023/06/17 01:39:36;;;;;;;;;;;;;;;;;;5050973;28;19924;-72
2023/06/17 01:42:03;;;;;;;;;;;;;;;;;;5033651;28;19926;-72
2023/06/17 01:44:30;;;;;;;;;;;;;;;;;;5044807;28;19925;-72
2023/06/17 01:46:57;;;;;;;;;;;;;;;;;;5048120;28;20024;-72
2023/06/17 01:49:24;;;;;;;;;;;;;;;;;;5047546;28;19925;-72
2023/06/17 01:51:51;;;;;;;;;;;;;;;;;;5053577;28;19968;-72
2023/06/17 01:54:18;;;;;;;;;;;;;;;;;;5053477;28;19925;-72
2023/06/17 01:56:45;;;;;;;;;;;;;;;;;;5049702;28;20007;-71
2023/06/17 01:59:12;;;;;;;;;;;;;;;;;;5047372;28;19983;-72
2023/06/17 02:01:39;;;;;;;;;;;;;;;;;;5053510;28;19994;-72
2023/06/17 02:04:06;;;;;;;;;;;;;;;;;;5053450;28;20011;-73
2023/06/17 02:06:33;;;;;;;;;;;;;;;;;;5053588;28;19978;-72
2023/06/17 02:09:00;;;;;;;;;;;;;;;;;;5053129;28;20019;-71
2023/06/17 02:11:27;;;;;;;;;;;;;;;;;;5053098;28;19976;-72
2023/06/17 02:13:54;;;;;;;;;;;;;;;;;;5039370;28;20388;-73
2023/06/17 02:16:21;;;;;;;;;;;;;;;;;;5033055;28;20443;-72
2023/06/17 02:18:48;;;;;;;;;;;;;;;;;;5033172;28;20360;-72
2023/06/17 02:21:15;;;;;;;;;;;;;;;;;;5052001;28;19972;-71
2023/06/17 02:23:42;;;;;;;;;;;;;;;;;;5049128;28;20020;-71
2023/06/17 02:26:09;;;;;;;;;;;;;;;;;;5033109;28;20384;-70
2023/06/17 02:28:36;;;;;;;;;;;;;;;;;;5043842;28;20359;-70
2023/06/17 02:31:03;;;;;;;;;;;;;;;;;;5039205;28;20031;-71
2023/06/17 02:33:32;;;;;;;;;;;;;;;;;;5053117;28;19932;-71
2023/06/17 02:35:59;;;;;;;;;;;;;;;;;;5052833;28;19990;-71
2023/06/17 02:38:26;;;;;;;;;;;;;;;;;;5052668;28;19932;-71
2023/06/17 02:40:53;;;;;;;;;;;;;;;;;;5052527;28;20015;-71
2023/06/17 02:43:20;;;;;;;;;;;;;;;;;;5052804;28;19999;-71
2023/06/17 02:45:47;;;;;;;;;;;;;;;;;;5053074;28;19975;-71
2023/06/17 02:48:14;;;;;;;;;;;;;;;;;;5052054;28;19929;-71
2023/06/17 02:50:41;;;;;;;;;;;;;;;;;;5052138;28;20027;-71
2023/06/17 02:53:08;;;;;;;;;;;;;;;;;;5052452;28;19924;-71
2023/06/17 02:55:35;;;;;;;;;;;;;;;;;;5052295;28;19931;-71
2023/06/17 02:58:03;;;;;;;;;;;;;;;;;;5052069;28;19975;-71
2023/06/17 03:00:30;;;;;;;;;;;;;;;;;;5050679;28;19931;-71
2023/06/17 03:02:57;;;;;;;;;;;;;;;;;;5052291;28;20295;-71
2023/06/17 03:05:24;;;;;;;;;;;;;;;;;;5043493;28;19977;-71
2023/06/17 03:07:51;;;;;;;;;;;;;;;;;;5032520;28;20019;-71
2023/06/17 03:10:18;;;;;;;;;;;;;;;;;;5044324;28;19956;-71
2023/06/17 03:12:45;;;;;;;;;;;;;;;;;;5052541;28;20299;-71
2023/06/17 03:15:17;;;;;;;;;;;;;;;;;;5052504;28;20272;-71
2023/06/17 03:17:44;;;;;;;;;;;;;;;;;;5034365;28;20348;-71
2023/06/17 03:20:11;;;;;;;;;;;;;;;;;;5032141;28;19933;-71
2023/06/17 03:22:38;;;;;;;;;;;;;;;;;;5033464;28;19925;-71
2023/06/17 03:25:05;;;;;;;;;;;;;;;;;;5032154;28;20024;-71
2023/06/17 03:27:32;;;;;;;;;;;;;;;;;;5032178;28;20015;-71
2023/06/17 03:29:59;;;;;;;;;;;;;;;;;;5032208;28;19931;-71
2023/06/17 03:32:26;;;;;;;;;;;;;;;;;;5051991;28;19924;-71
2023/06/17 03:34:53;;;;;;;;;;;;;;;;;;5052130;28;20454;-71
2023/06/17 03:37:20;;;;;;;;;;;;;;;;;;5049509;28;19924;-71
2023/06/17 03:39:47;;;;;;;;;;;;;;;;;;5038184;28;20004;-70
2023/06/17 03:42:14;;;;;;;;;;;;;;;;;;5032722;28;20016;-71
2023/06/17 03:44:41;;;;;;;;;;;;;;;;;;5048107;28;19925;-70
2023/06/17 03:47:08;;;;;;;;;;;;;;;;;;5055787;28;20028;-70
2023/06/17 03:49:35;;;;;;;;;;;;;;;;;;5055459;28;20470;-71
2023/06/17 03:52:02;;;;;;;;;;;;;;;;;;5055323;28;19929;-71
2023/06/17 03:54:30;;;;;;;;;;;;;;;;;;5055050;28;19931;-71
2023/06/17 03:56:57;;;;;;;;;;;;;;;;;;5041679;28;19925;-71
2023/06/17 03:59:24;;;;;;;;;;;;;;;;;;5048608;28;19968;-71
2023/06/17 04:01:51;;;;;;;;;;;;;;;;;;5055626;28;19925;-71
2023/06/17 04:04:18;;;;;;;;;;;;;;;;;;5055485;28;19924;-71
2023/06/17 04:06:45;;;;;;;;;;;;;;;;;;5054737;28;20027;-70
2023/06/17 04:09:12;;;;;;;;;;;;;;;;;;5052108;28;19925;-70
2023/06/17 04:11:40;;;;;;;;;;;;;;;;;;5055227;28;19925;-70
2023/06/17 04:14:07;;;;;;;;;;;;;;;;;;5040300;28;20022;-70
2023/06/17 04:16:35;;;;;;;;;;;;;;;;;;5035687;28;20007;-70
2023/06/17 04:19:02;;;;;;;;;;;;;;;;;;5041380;28;19925;-71
2023/06/17 04:21:29;;;;;;;;;;;;;;;;;;5055474;28;19925;-71
2023/06/17 04:23:56;;;;;;;;;;;;;;;;;;5055223;28;20023;-71
2023/06/17 04:26:23;;;;;;;;;;;;;;;;;;5054016;28;20411;-71
2023/06/17 04:28:50;;;;;;;;;;;;;;;;;;5054825;28;20347;-73
2023/06/17 04:31:17;;;;;;;;;;;;;;;;;;5055369;28;19991;-71
2023/06/17 04:33:46;;;;;;;;;;;;;;;;;;5054501;28;20193;-71
2023/06/17 04:36:14;;;;;;;;;;;;;;;;;;5048998;28;20384;-71
2023/06/17 04:38:41;;;;;;;;;;;;;;;;;;5041756;28;19932;-71
2023/06/17 04:41:08;;;;;;;;;;;;;;;;;;5034973;28;20020;-70
2023/06/17 04:43:36;;;;;;;;;;;;;;;;;;5048639;28;19995;-71
2023/06/17 04:46:03;;;;;;;;;;;;;;;;;;5054455;28;19978;-70
2023/06/17 04:48:30;;;;;;;;;;;;;;;;;;5036901;28;20258;-70
2023/06/17 04:50:57;;;;;;;;;;;;;;;;;;5035207;28;20295;-70
2023/06/17 04:53:24;;;;;;;;;;;;;;;;;;5034380;28;19972;-70
2023/06/17 04:55:51;;;;;;;;;;;;;;;;;;5035588;28;20377;-70
2023/06/17 04:58:18;;;;;;;;;;;;;;;;;;5052354;28;20019;-71
2023/06/17 05:00:45;;;;;;;;;;;;;;;;;;5054153;28;20008;-70
2023/06/17 05:03:12;;;;;;;;;;;;;;;;;;5054632;28;20011;-70
2023/06/17 05:05:39;;;;;;;;;;;;;;;;;;5036121;28;20007;-71
2023/06/17 05:08:06;;;;;;;;;;;;;;;;;;5034603;28;19944;-71
2023/06/17 05:10:33;;;;;;;;;;;;;;;;;;5044816;28;20780;-71
2023/06/17 05:13:00;;;;;;;;;;;;;;;;;;5052601;28;20015;-72
2023/06/17 05:15:27;;;;;;;;;;;;;;;;;;5054451;28;19925;-71
2023/06/17 05:17:54;;;;;;;;;;;;;;;;;;5052754;28;20466;-71
2023/06/17 05:20:21;;;;;;;;;;;;;;;;;;5042264;28;19925;-71
2023/06/17 05:22:48;;;;;;;;;;;;;;;;;;5042733;28;19931;-68
2023/06/17 05:25:15;;;;;;;;;;;;;;;;;;5034670;28;19925;-68
2023/06/17 05:27:42;;;;;;;;;;;;;;;;;;5047584;28;20375;-69
2023/06/17 05:30:09;;;;;;;;;;;;;;;;;;5053562;28;19971;-69
2023/06/17 05:32:36;;;;;;;;;;;;;;;;;;5048481;28;19933;-69
2023/06/17 05:35:03;;;;;;;;;;;;;;;;;;5052972;28;20284;-69
2023/06/17 05:37:31;;;;;;;;;;;;;;;;;;5043889;28;20016;-69
2023/06/17 05:39:58;;;;;;;;;;;;;;;;;;5046463;28;19947;-71
2023/06/17 05:42:25;;;;;;;;;;;;;;;;;;5049606;28;19983;-69
2023/06/17 05:44:52;;;;;;;;;;;;;;;;;;5053759;28;20344;-70
2023/06/17 05:47:19;;;;;;;;;;;;;;;;;;5041644;28;20003;-69
2023/06/17 05:49:46;;;;;;;;;;;;;;;;;;5033854;28;19979;-70
2023/06/17 05:52:13;;;;;;;;;;;;;;;;;;5040421;28;20004;-71
2023/06/17 05:54:40;;;;;;;;;;;;;;;;;;5052124;28;20020;-69
2023/06/17 05:57:07;;;;;;;;;;;;;;;;;;5041131;28;19935;-69
2023/06/17 05:59:34;;;;;;;;;;;;;;;;;;5053792;28;20007;-69
2023/06/17 06:02:01;;;;;;;;;;;;;;;;;;5040694;28;20426;-70
2023/06/17 06:04:28;;;;;;;;;;;;;;;;;;5048138;28;19987;-70
2023/06/17 06:06:55;;;;;;;;;;;;;;;;;;5042716;28;20015;-70
2023/06/17 06:09:22;;;;;;;;;;;;;;;;;;5041713;28;20008;-70
2023/06/17 06:11:50;;;;;;;;;;;;;;;;;;5049050;28;19925;-70
2023/06/17 06:14:17;;;;;;;;;;;;;;;;;;5041656;28;19948;-70
2023/06/17 06:16:44;;;;;;;;;;;;;;;;;;5049333;28;19983;-71
2023/06/17 06:19:11;;;;;;;;;;;;;;;;;;5048946;28;19935;-70
2023/06/17 06:21:39;;;;;;;;;;;;;;;;;;5039249;28;19924;-70
2023/06/17 06:24:06;;;;;;;;;;;;;;;;;;5046583;28;19925;-69
2023/06/17 06:26:33;;;;;;;;;;;;;;;;;;5047427;28;19994;-70
2023/06/17 06:29:00;;;;;;;;;;;;;;;;;;5041018;28;19932;-69
2023/06/17 06:31:27;;;;;;;;;;;;;;;;;;5046219;28;19932;-70
2023/06/17 06:33:54;;;;;;;;;;;;;;;;;;5046862;28;20439;-70
2023/06/17 06:36:21;;;;;;;;;;;;;;;;;;5045611;28;20439;-70
2023/06/17 06:38:48;;;;;;;;;;;;;;;;;;5049750;28;20414;-70
2023/06/17 06:41:15;;;;;;;;;;;;;;;;;;5043843;28;20355;-70
2023/06/17 06:43:42;;;;;;;;;;;;;;;;;;5047390;28;19960;-70
2023/06/17 06:46:09;;;;;;;;;;;;;;;;;;5037876;28;20003;-69
2023/06/17 06:48:36;;;;;;;;;;;;;;;;;;5032321;28;19929;-69
2023/06/17 06:51:03;;;;;;;;;;;;;;;;;;5047863;28;20024;-69
2023/06/17 06:53:30;;;;;;;;;;;;;;;;;;5041551;28;20015;-69
2023/06/17 06:55:57;;;;;;;;;;;;;;;;;;5050308;28;20390;-69
2023/06/17 06:58:24;;;;;;;;;;;;;;;;;;5046844;28;19929;-72
2023/06/17 07:00:51;;;;;;;;;;;;;;;;;;5050014;28;20019;-71
2023/06/17 07:03:18;;;;;;;;;;;;;;;;;;5036632;28;20392;-71
2023/06/17 07:05:45;;;;;;;;;;;;;;;;;;5050065;28;19925;-71
2023/06/17 07:08:12;;;;;;;;;;;;;;;;;;5049160;28;19936;-70
2023/06/17 07:10:39;;;;;;;;;;;;;;;;;;5047058;28;20004;-73
2023/06/17 07:13:07;;;;;;;;;;;;;;;;;;5042207;28;19928;-71
2023/06/17 07:15:34;;;;;;;;;;;;;;;;;;5048358;28;19991;-70
2023/06/17 07:18:00;;;;;;;;;;;;;;;;;;5054356;28;19925;-71
2023/06/17 07:20:27;;;;;;;;;;;;;;;;;;5051204;28;19964;-69
2023/06/17 07:22:54;;;;;;;;;;;;;;;;;;5047325;28;19931;-70
2023/06/17 07:25:21;;;;;;;;;;;;;;;;;;5039186;28;19986;-69
2023/06/17 07:27:48;;;;;;;;;;;;;;;;;;5050564;28;20457;-70
2023/06/17 07:30:15;;;;;;;;;;;;;;;;;;5049171;28;20443;-69
2023/06/17 07:32:42;;;;;;;;;;;;;;;;;;5048783;28;20372;-69
2023/06/17 07:35:09;;;;;;;;;;;;;;;;;;5051542;28;20361;-69
2023/06/17 07:37:36;;;;;;;;;;;;;;;;;;5044569;28;19929;-69
2023/06/17 07:40:05;;;;;;;;;;;;;;;;;;5050938;28;19924;-70
2023/06/17 07:42:32;;;;;;;;;;;;;;;;;;5047372;28;20430;-70
2023/06/17 07:44:59;;;;;;;;;;;;;;;;;;5048730;28;20455;-70
2023/06/17 07:47:26;;;;;;;;;;;;;;;;;;5042253;28;19929;-71
2023/06/17 07:49:53;;;;;;;;;;;;;;;;;;5039903;28;19999;-70
2023/06/17 07:52:20;;;;;;;;;;;;;;;;;;5044179;28;20364;-70
2023/06/17 07:54:47;;;;;;;;;;;;;;;;;;5046946;28;19925;-70
2023/06/17 07:57:14;;;;;;;;;;;;;;;;;;5053010;28;19952;-70
2023/06/17 07:59:41;;;;;;;;;;;;;;;;;;5052465;28;19925;-70
2023/06/17 08:02:08;;;;;;;;;;;;;;;;;;5046979;28;19925;-70
2023/06/17 08:04:35;;;;;;;;;;;;;;;;;;5038240;28;19957;-70
2023/06/17 08:07:02;;;;;;;;;;;;;;;;;;5043554;28;19928;-70
2023/06/17 08:09:29;;;;;;;;;;;;;;;;;;5047362;28;19929;-70
2023/06/17 08:11:57;;;;;;;;;;;;;;;;;;5050647;28;19925;-70
2023/06/17 08:14:24;;;;;;;;;;;;;;;;;;5048581;28;19932;-70
2023/06/17 08:16:51;;;;;;;;;;;;;;;;;;5047188;28;19960;-72
2023/06/17 08:19:19;;;;;;;;;;;;;;;;;;5048809;28;19970;-70
2023/06/17 08:21:46;;;;;;;;;;;;;;;;;;5050234;28;19925;-70
2023/06/17 08:24:13;;;;;;;;;;;;;;;;;;5038233;28;20048;-70
2023/06/17 08:26:42;;;;;;;;;;;;;;;;;;5049038;28;20012;-70
2023/06/17 08:29:10;;;;;;;;;;;;;;;;;;5050724;28;19968;-70
2023/06/17 08:31:37;;;;;;;;;;;;;;;;;;5048199;28;19928;-70
2023/06/17 08:34:04;;;;;;;;;;;;;;;;;;5051454;28;19933;-69
2023/06/17 08:36:32;;;;;;;;;;;;;;;;;;5043224;28;20016;-70
2023/06/17 08:38:59;;;;;;;;;;;;;;;;;;5051845;28;19932;-69
2023/06/17 08:41:27;;;;;;;;;;;;;;;;;;5041706;28;19971;-69
2023/06/17 08:43:54;;;;;;;;;;;;;;;;;;5043036;28;19925;-71
2023/06/17 08:46:21;;;;;;;;;;;;;;;;;;5042798;28;19940;-69
2023/06/17 08:48:48;;;;;;;;;;;;;;;;;;5049275;28;20460;-69
2023/06/17 08:51:15;;;;;;;;;;;;;;;;;;5046350;28;20438;-70
2023/06/17 08:53:42;;;;;;;;;;;;;;;;;;5045849;28;19972;-70
2023/06/17 08:56:09;;;;;;;;;;;;;;;;;;5042546;28;19964;-70
2023/06/17 08:58:37;;;;;;;;;;;;;;;;;;5047010;28;19943;-69
2023/06/17 09:01:04;;;;;;;;;;;;;;;;;;5049254;28;20460;-70
2023/06/17 09:03:31;;;;;;;;;;;;;;;;;;5045654;28;20051;-70
2023/06/17 09:05:58;;;;;;;;;;;;;;;;;;5048100;28;19991;-71
2023/06/17 09:08:25;;;;;;;;;;;;;;;;;;5053764;28;20322;-71
2023/06/17 09:10:52;;;;;;;;;;;;;;;;;;5050982;28;20388;-71
2023/06/17 09:13:19;;;;;;;;;;;;;;;;;;5037372;28;20501;-71
2023/06/17 09:15:46;;;;;;;;;;;;;;;;;;5050354;28;20354;-71
2023/06/17 09:18:13;;;;;;;;;;;;;;;;;;5050131;28;20039;-69
2023/06/17 09:20:40;;;;;;;;;;;;;;;;;;5041826;28;20020;-69
2023/06/17 09:23:07;;;;;;;;;;;;;;;;;;5044954;28;19984;-70
2023/06/17 09:25:34;;;;;;;;;;;;;;;;;;5042425;28;20024;-68
2023/06/17 09:28:01;;;;;;;;;;;;;;;;;;5051517;28;20363;-70
2023/06/17 09:30:28;;;;;;;;;;;;;;;;;;5052989;28;20451;-69
2023/06/17 09:32:55;;;;;;;;;;;;;;;;;;5048349;28;19967;-70
2023/06/17 09:35:22;;;;;;;;;;;;;;;;;;5046558;28;19989;-73
2023/06/17 09:37:49;;;;;;;;;;;;;;;;;;5040452;28;19956;-72
2023/06/17 09:40:16;;;;;;;;;;;;;;;;;;5044418;28;20342;-71
2023/06/17 09:42:44;;;;;;;;;;;;;;;;;;5037463;28;19993;-72
2023/06/17 09:45:11;;;;;;;;;;;;;;;;;;5046914;28;19968;-68
2023/06/17 09:47:38;;;;;;;;;;;;;;;;;;5052913;28;20577;-70
2023/06/17 09:50:06;;;;;;;;;;;;;;;;;;5050250;28;19932;-69
2023/06/17 09:52:35;;;;;;;;;;;;;;;;;;5043530;28;19929;-71
2023/06/17 09:55:02;;;;;;;;;;;;;;;;;;5042035;28;19925;-72
2023/06/17 09:57:31;;;;;;;;;;;;;;;;;;5052081;28;19925;-71
2023/06/17 09:59:59;;;;;;;;;;;;;;;;;;5051092;28;19990;-74
2023/06/17 10:02:26;;;;;;;;;;;;;;;;;;5050597;28;19964;-72
2023/06/17 10:04:53;;;;;;;;;;;;;;;;;;5048673;28;19932;-70
2023/06/17 10:07:20;;;;;;;;;;;;;;;;;;5051173;28;19931;-73
2023/06/17 10:09:47;;;;;;;;;;;;;;;;;;5044709;28;19961;-72
2023/06/17 10:12:14;;;;;;;;;;;;;;;;;;5048624;28;19976;-72
2023/06/17 10:14:41;;;;;;;;;;;;;;;;;;5050394;28;19971;-71
2023/06/17 10:17:09;;;;;;;;;;;;;;;;;;5049919;28;19925;-70
2023/06/17 10:19:36;;;;;;;;;;;;;;;;;;5050465;28;19931;-71
2023/06/17 10:22:03;;;;;;;;;;;;;;;;;;5033354;28;19925;-71
2023/06/17 10:24:30;;;;;;;;;;;;;;;;;;5039735;28;19933;-71
2023/06/17 10:26:57;;;;;;;;;;;;;;;;;;5040758;28;20363;-72
2023/06/17 10:29:24;;;;;;;;;;;;;;;;;;5044116;28;19966;-72
2023/06/17 10:31:51;;;;;;;;;;;;;;;;;;5041313;28;20336;-72
2023/06/17 10:34:18;;;;;;;;;;;;;;;;;;5045436;28;19939;-72
2023/06/17 10:36:45;;;;;;;;;;;;;;;;;;5038013;28;20047;-72
2023/06/17 10:39:12;;;;;;;;;;;;;;;;;;5037065;28;20011;-73
2023/06/17 10:41:39;;;;;;;;;;;;;;;;;;5051293;28;19925;-72
2023/06/17 10:44:06;;;;;;;;;;;;;;;;;;5045812;28;19929;-71
2023/06/17 10:46:33;;;;;;;;;;;;;;;;;;5045770;28;19996;-71
2023/06/17 10:49:00;;;;;;;;;;;;;;;;;;5042653;28;20296;-71
2023/06/17 10:51:27;;;;;;;;;;;;;;;;;;5036111;28;20757;-72
2023/06/17 10:53:54;;;;;;;;;;;;;;;;;;5048864;28;19999;-71
2023/06/17 10:56:21;;;;;;;;;;;;;;;;;;5042561;28;19925;-72
2023/06/17 10:58:48;;;;;;;;;;;;;;;;;;5045963;28;20350;-72
2023/06/17 11:01:15;;;;;;;;;;;;;;;;;;5043417;28;20394;-72
2023/06/17 11:03:44;;;;;;;;;;;;;;;;;;5038809;28;20350;-72
2023/06/17 11:06:13;;;;;;;;;;;;;;;;;;5049245;28;20016;-72
2023/06/17 11:08:40;;;;;;;;;;;;;;;;;;5043157;28;19929;-72
2023/06/17 11:11:07;;;;;;;;;;;;;;;;;;5050568;28;20268;-72
2023/06/17 11:13:34;;;;;;;;;;;;;;;;;;5049260;28;19948;-73
2023/06/17 11:16:01;;;;;;;;;;;;;;;;;;5050911;28;19924;-73
2023/06/17 11:18:28;;;;;;;;;;;;;;;;;;5048653;28;19947;-72
2023/06/17 11:20:55;;;;;;;;;;;;;;;;;;5049626;28;19925;-72
2023/06/17 11:23:22;;;;;;;;;;;;;;;;;;5048752;28;19931;-73
2023/06/17 11:25:49;;;;;;;;;;;;;;;;;;5043693;28;19925;-71
2023/06/17 11:28:16;;;;;;;;;;;;;;;;;;5047868;28;20019;-73
2023/06/17 11:30:43;;;;;;;;;;;;;;;;;;5044422;28;20016;-73
2023/06/17 11:33:10;;;;;;;;;;;;;;;;;;5040641;28;20381;-73
2023/06/17 11:35:37;;;;;;;;;;;;;;;;;;5041839;28;20383;-73
2023/06/17 11:38:04;;;;;;;;;;;;;;;;;;5044086;28;20343;-73
2023/06/17 11:40:31;;;;;;;;;;;;;;;;;;5048861;28;19983;-73
2023/06/17 11:42:58;;;;;;;;;;;;;;;;;;5043158;28;20003;-73
2023/06/17 11:45:27;;;;;;;;;;;;;;;;;;5049872;28;19931;-74
2023/06/17 11:47:54;;;;;;;;;;;;;;;;;;5044860;28;19994;-73
2023/06/17 11:50:21;;;;;;;;;;;;;;;;;;5044024;28;20008;-73
2023/06/17 11:52:48;;;;;;;;;;;;;;;;;;5042531;28;20364;-72
2023/06/17 11:55:15;;;;;;;;;;;;;;;;;;5043089;28;20015;-73
2023/06/17 11:57:42;;;;;;;;;;;;;;;;;;5049836;28;20387;-73
2023/06/17 12:00:09;;;;;;;;;;;;;;;;;;5038500;28;20368;-73
2023/06/17 12:02:36;;;;;;;;;;;;;;;;;;5045022;28;20352;-74
2023/06/17 12:05:03;;;;;;;;;;;;;;;;;;5054304;28;20299;-73
2023/06/17 12:07:30;;;;;;;;;;;;;;;;;;5039768;28;20429;-73
2023/06/17 12:09:57;;;;;;;;;;;;;;;;;;5053721;28;19967;-73
2023/06/17 12:12:24;;;;;;;;;;;;;;;;;;5052281;28;19960;-73
2023/06/17 12:14:51;;;;;;;;;;;;;;;;;;5054817;28;19924;-73
2023/06/17 12:17:22;;;;;;;;;;;;;;;;;;5048117;28;20367;-73
2023/06/17 12:19:49;;;;;;;;;;;;;;;;;;5048641;28;19924;-73
2023/06/17 12:22:16;;;;;;;;;;;;;;;;;;5049231;28;19925;-73
2023/06/17 12:24:43;;;;;;;;;;;;;;;;;;5044397;28;20000;-73
2023/06/17 12:27:10;;;;;;;;;;;;;;;;;;5046057;28;19925;-73
2023/06/17 12:29:37;;;;;;;;;;;;;;;;;;5049522;28;20019;-73
2023/06/17 12:32:04;;;;;;;;;;;;;;;;;;5049754;28;20368;-73
2023/06/17 12:34:31;;;;;;;;;;;;;;;;;;5049627;28;19978;-77
2023/06/17 12:36:59;;;;;;;;;;;;;;;;;;5042952;28;20380;-76
2023/06/17 12:39:26;;;;;;;;;;;;;;;;;;5036806;28;19932;-75
2023/06/17 12:41:53;;;;;;;;;;;;;;;;;;5037122;28;20003;-76
2023/06/17 12:44:20;;;;;;;;;;;;;;;;;;5048868;28;20024;-76
2023/06/17 12:46:47;;;;;;;;;;;;;;;;;;5047523;28;20233;-76
2023/06/17 12:49:14;;;;;;;;;;;;;;;;;;5050435;28;20295;-73
2023/06/17 12:51:42;;;;;;;;;;;;;;;;;;5043412;28;20371;-72
2023/06/17 12:54:09;;;;;;;;;;;;;;;;;;5048563;28;19925;-73
2023/06/17 12:56:36;;;;;;;;;;;;;;;;;;5041452;28;20284;-74
2023/06/17 12:59:04;;;;;;;;;;;;;;;;;;5038104;28;20376;-73
2023/06/17 13:01:31;;;;;;;;;;;;;;;;;;5050047;28;19929;-70
2023/06/17 13:03:58;;;;;;;;;;;;;;;;;;5046021;28;19979;-71
2023/06/17 13:06:26;;;;;;;;;;;;;;;;;;5054029;28;19928;-71
2023/06/17 13:08:54;;;;;;;;;;;;;;;;;;5047374;28;19925;-70
2023/06/17 13:11:21;;;;;;;;;;;;;;;;;;5053953;28;19928;-72
2023/06/17 13:13:50;;;;;;;;;;;;;;;;;;5050000;28;19932;-72
2023/06/17 13:16:17;;;;;;;;;;;;;;;;;;5052836;28;19967;-74
2023/06/17 13:18:44;;;;;;;;;;;;;;;;;;5040667;28;19925;-73
2023/06/17 13:21:11;;;;;;;;;;;;;;;;;;5052835;28;20286;-73
2023/06/17 13:23:38;;;;;;;;;;;;;;;;;;5052543;28;20016;-72
2023/06/17 13:26:05;;;;;;;;;;;;;;;;;;5043688;28;19935;-73
2023/06/17 13:28:33;;;;;;;;;;;;;;;;;;5049023;28;19971;-74
2023/06/17 13:31:01;;;;;;;;;;;;;;;;;;5052402;28;19944;-73
2023/06/17 13:33:28;;;;;;;;;;;;;;;;;;5050384;28;19972;-72
2023/06/17 13:35:55;;;;;;;;;;;;;;;;;;5049983;28;20403;-72
2023/06/17 13:38:22;;;;;;;;;;;;;;;;;;5043127;28;20431;-73
2023/06/17 13:40:49;;;;;;;;;;;;;;;;;;5041164;28;20322;-69
2023/06/17 13:43:17;;;;;;;;;;;;;;;;;;5047076;28;20307;-80
2023/06/17 13:45:44;;;;;;;;;;;;;;;;;;5037324;28;20446;-72
2023/06/17 13:48:11;;;;;;;;;;;;;;;;;;5038533;28;19935;-71
2023/06/17 13:50:38;;;;;;;;;;;;;;;;;;5044515;28;19933;-71
2023/06/17 13:53:05;;;;;;;;;;;;;;;;;;5039300;28;19933;-72
2023/06/17 13:55:32;;;;;;;;;;;;;;;;;;5041713;28;19967;-72
2023/06/17 13:57:59;;;;;;;;;;;;;;;;;;5045083;28;20046;-72
2023/06/17 14:00:26;;;;;;;;;;;;;;;;;;5042266;28;20031;-72
2023/06/17 14:02:53;;;;;;;;;;;;;;;;;;5042850;28;20106;-72
2023/06/17 14:05:20;;;;;;;;;;;;;;;;;;5045080;28;19945;-71
2023/06/17 14:07:47;;;;;;;;;;;;;;;;;;5041071;28;19925;-71
2023/06/17 14:10:14;;;;;;;;;;;;;;;;;;5040969;28;20352;-72
2023/06/17 14:12:41;;;;;;;;;;;;;;;;;;5052790;28;20352;-72
2023/06/17 14:15:09;;;;;;;;;;;;;;;;;;5039099;28;20349;-72
2023/06/17 14:17:36;;;;;;;;;;;;;;;;;;5052547;28;19933;-72
2023/06/17 14:20:03;;;;;;;;;;;;;;;;;;5040886;28;20474;-71
2023/06/17 14:22:30;;;;;;;;;;;;;;;;;;5033357;28;19929;-71
2023/06/17 14:24:57;;;;;;;;;;;;;;;;;;5038814;28;19925;-71
2023/06/17 14:27:24;;;;;;;;;;;;;;;;;;5043807;28;19936;-71
2023/06/17 14:29:51;;;;;;;;;;;;;;;;;;5040187;28;19931;-72
2023/06/17 14:32:18;;;;;;;;;;;;;;;;;;5049185;28;19932;-72
2023/06/17 14:34:46;;;;;;;;;;;;;;;;;;5043178;28;20023;-71
2023/06/17 14:37:13;;;;;;;;;;;;;;;;;;5052642;28;19924;-71
2023/06/17 14:39:40;;;;;;;;;;;;;;;;;;5052608;28;19932;-72
2023/06/17 14:42:07;;;;;;;;;;;;;;;;;;5048144;28;19950;-72
2023/06/17 14:44:34;;;;;;;;;;;;;;;;;;5046329;28;20007;-72
2023/06/17 14:47:01;;;;;;;;;;;;;;;;;;5032757;28;20016;-72
2023/06/17 14:49:28;;;;;;;;;;;;;;;;;;5047587;28;19929;-73
2023/06/17 14:51:55;;;;;;;;;;;;;;;;;;5052818;28;20028;-74
2023/06/17 14:54:25;;;;;;;;;;;;;;;;;;5046723;28;20336;-73
2023/06/17 14:56:52;;;;;;;;;;;;;;;;;;5032288;28;19933;-72
2023/06/17 14:59:19;;;;;;;;;;;;;;;;;;5046640;28;19925;-72
2023/06/17 15:01:46;;;;;;;;;;;;;;;;;;5038861;28;19961;-70
2023/06/17 15:04:13;;;;;;;;;;;;;;;;;;5049998;28;20015;-70
2023/06/17 15:06:40;;;;;;;;;;;;;;;;;;5043972;28;19938;-71
2023/06/17 15:11:48;;;;;;;;;;;;;;;;;;5040410;28;19925;-69
2023/06/17 15:14:15;;;;;;;;;;;;;;;;;;5032628;28;20476;-70
2023/06/17 15:16:42;;;;;;;;;;;;;;;;;;5037825;28;20359;-70
2023/06/17 15:19:09;;;;;;;;;;;;;;;;;;5050121;28;19932;-71
2023/06/17 15:21:37;;;;;;;;;;;;;;;;;;5047253;28;19944;-71
2023/06/17 15:24:05;;;;;;;;;;;;;;;;;;5040651;28;20458;-71
2023/06/17 15:26:32;;;;;;;;;;;;;;;;;;5042504;28;19931;-71
2023/06/17 15:28:59;;;;;;;;;;;;;;;;;;5031712;28;20024;-70
2023/06/17 15:31:26;;;;;;;;;;;;;;;;;;5045040;28;20020;-71
2023/06/17 15:33:53;;;;;;;;;;;;;;;;;;5042914;28;19925;-70
2023/06/17 15:36:20;;;;;;;;;;;;;;;;;;5041948;28;19998;-71
2023/06/17 15:38:47;;;;;;;;;;;;;;;;;;5047700;28;20012;-70
2023/06/17 15:41:14;;;;;;;;;;;;;;;;;;5046379;28;20012;-70
2023/06/17 15:43:41;;;;;;;;;;;;;;;;;;5044922;28;19933;-70
2023/06/17 15:46:08;;;;;;;;;;;;;;;;;;5046390;28;19948;-71
2023/06/17 15:48:35;;;;;;;;;;;;;;;;;;5045616;28;20486;-70
2023/06/17 15:51:03;;;;;;;;;;;;;;;;;;5041225;28;20011;-70
2023/06/17 15:53:30;;;;;;;;;;;;;;;;;;5038225;28;19925;-71
2023/06/17 15:55:57;;;;;;;;;;;;;;;;;;5045424;28;20446;-71
2023/06/17 15:58:24;;;;;;;;;;;;;;;;;;5048852;28;20392;-71
2023/06/17 16:00:51;;;;;;;;;;;;;;;;;;5045540;28;20021;-70
2023/06/17 16:06:02;;;;;;;;;;;;;;;;;;5037393;28;20392;-70
2023/06/17 16:08:29;;;;;;;;;;;;;;;;;;5044700;28;19972;-72
2023/06/17 16:10:56;;;;;;;;;;;;;;;;;;5044611;28;20487;-70
2023/06/17 16:13:23;;;;;;;;;;;;;;;;;;5045701;28;20127;-70
2023/06/17 16:15:50;;;;;;;;;;;;;;;;;;5050405;28;19968;-71
2023/06/17 16:18:17;;;;;;;;;;;;;;;;;;5049621;28;20019;-71
2023/06/17 16:20:44;;;;;;;;;;;;;;;;;;5042785;28;20030;-72
2023/06/17 16:23:11;;;;;;;;;;;;;;;;;;5046035;28;20029;-72
2023/06/17 16:25:38;;;;;;;;;;;;;;;;;;5047525;28;20047;-72
2023/06/17 16:28:05;;;;;;;;;;;;;;;;;;5054030;28;20354;-72
2023/06/17 16:30:33;;;;;;;;;;;;;;;;;;5045019;28;20295;-72
2023/06/17 16:33:00;;;;;;;;;;;;;;;;;;5045043;28;19979;-70
2023/06/17 16:35:27;;;;;;;;;;;;;;;;;;5037966;28;19925;-70
2023/06/17 16:37:54;;;;;;;;;;;;;;;;;;5039839;28;19925;-70
2023/06/17 16:40:21;;;;;;;;;;;;;;;;;;5047780;28;20019;-70
2023/06/17 16:42:48;;;;;;;;;;;;;;;;;;5036570;28;19956;-70
2023/06/17 16:45:15;;;;;;;;;;;;;;;;;;5052965;28;19979;-72
2023/06/17 16:47:42;;;;;;;;;;;;;;;;;;5050824;28;19925;-69
2023/06/17 16:50:09;;;;;;;;;;;;;;;;;;5042173;28;20032;-70